sensor_id;sensor_type;location;lat;lon;timestamp;temperature;humidity
71514;DHT22;59335;46.652;21.272;2023-02-26T00:00:59;22.90;35.15
71514;DHT22;59335;46.652;21.272;2023-02-26T00:04:04;22.91;35.15
71514;DHT22;59335;46.652;21.272;2023-02-26T00:07:08;22.92;35.12
71514;DHT22;59335;46.652;21.272;2023-02-26T00:10:13;22.91;35.06
71514;DHT22;59335;46.652;21.272;2023-02-26T00:13:18;22.91;35.09
71514;DHT22;59335;46.652;21.272;2023-02-26T00:16:28;22.91;35.13
71514;DHT22;59335;46.652;21.272;2023-02-26T00:19:31;22.90;35.07
71514;DHT22;59335;46.652;21.272;2023-02-26T00:22:34;22.91;35.05
71514;DHT22;59335;46.652;21.272;2023-02-26T00:25:37;22.91;35.07
71514;DHT22;59335;46.652;21.272;2023-02-26T00:28:40;22.90;35.09
71514;DHT22;59335;46.652;21.272;2023-02-26T00:31:43;22.92;35.02
71514;DHT22;59335;46.652;21.272;2023-02-26T00:34:47;22.91;35.06
71514;DHT22;59335;46.652;21.272;2023-02-26T00:38:01;22.91;34.96
71514;DHT22;59335;46.652;21.272;2023-02-26T00:41:05;22.92;35.05
71514;DHT22;59335;46.652;21.272;2023-02-26T00:44:10;22.90;34.92
71514;DHT22;59335;46.652;21.272;2023-02-26T00:50:23;22.91;34.95
71514;DHT22;59335;46.652;21.272;2023-02-26T00:57:16;22.90;34.99
71514;DHT22;59335;46.652;21.272;2023-02-26T01:00:20;22.92;34.93
71514;DHT22;59335;46.652;21.272;2023-02-26T01:03:24;22.90;34.92
71514;DHT22;59335;46.652;21.272;2023-02-26T01:06:29;22.90;34.98
71514;DHT22;59335;46.652;21.272;2023-02-26T01:09:35;22.88;34.92
71514;DHT22;59335;46.652;21.272;2023-02-26T01:12:39;22.91;34.93
71514;DHT22;59335;46.652;21.272;2023-02-26T01:15:47;22.88;34.85
71514;DHT22;59335;46.652;21.272;2023-02-26T01:19:13;22.88;34.86
71514;DHT22;59335;46.652;21.272;2023-02-26T01:25:48;22.90;34.88
71514;DHT22;59335;46.652;21.272;2023-02-26T01:28:52;22.88;34.89
71514;DHT22;59335;46.652;21.272;2023-02-26T01:32:04;22.88;34.86
71514;DHT22;59335;46.652;21.272;2023-02-26T01:35:11;22.90;34.85
71514;DHT22;59335;46.652;21.272;2023-02-26T01:41:58;22.90;34.89
71514;DHT22;59335;46.652;21.272;2023-02-26T01:45:15;22.88;34.87
71514;DHT22;59335;46.652;21.272;2023-02-26T01:48:33;22.88;34.86
71514;DHT22;59335;46.652;21.272;2023-02-26T01:51:50;22.87;34.88
71514;DHT22;59335;46.652;21.272;2023-02-26T01:54:53;22.88;34.89
71514;DHT22;59335;46.652;21.272;2023-02-26T01:57:57;22.88;34.82
71514;DHT22;59335;46.652;21.272;2023-02-26T02:01:02;22.88;34.82
71514;DHT22;59335;46.652;21.272;2023-02-26T02:04:10;22.88;34.82
71514;DHT22;59335;46.652;21.272;2023-02-26T02:07:14;22.88;34.82
71514;DHT22;59335;46.652;21.272;2023-02-26T02:10:17;22.90;34.86
71514;DHT22;59335;46.652;21.272;2023-02-26T02:23:21;22.90;34.81
71514;DHT22;59335;46.652;21.272;2023-02-26T02:27:03;22.90;34.84
71514;DHT22;59335;46.652;21.272;2023-02-26T02:33:26;22.87;34.79
71514;DHT22;59335;46.652;21.272;2023-02-26T02:36:42;22.90;34.77
71514;DHT22;59335;46.652;21.272;2023-02-26T02:39:52;22.88;34.76
71514;DHT22;59335;46.652;21.272;2023-02-26T02:43:15;22.91;34.76
71514;DHT22;59335;46.652;21.272;2023-02-26T02:46:24;22.90;34.76
71514;DHT22;59335;46.652;21.272;2023-02-26T02:49:41;22.87;34.75
71514;DHT22;59335;46.652;21.272;2023-02-26T02:53:14;22.88;34.74
71514;DHT22;59335;46.652;21.272;2023-02-26T02:56:19;22.90;34.74
71514;DHT22;59335;46.652;21.272;2023-02-26T02:59:41;22.88;34.76
71514;DHT22;59335;46.652;21.272;2023-02-26T03:05:48;22.88;34.69
71514;DHT22;59335;46.652;21.272;2023-02-26T03:08:51;22.88;34.75
71514;DHT22;59335;46.652;21.272;2023-02-26T03:11:54;22.88;34.74
71514;DHT22;59335;46.652;21.272;2023-02-26T03:14:58;22.91;34.68
71514;DHT22;59335;46.652;21.272;2023-02-26T03:18:28;22.88;34.67
71514;DHT22;59335;46.652;21.272;2023-02-26T03:31:56;22.88;34.67
71514;DHT22;59335;46.652;21.272;2023-02-26T03:35:10;22.90;34.65
71514;DHT22;59335;46.652;21.272;2023-02-26T03:38:48;22.87;34.61
71514;DHT22;59335;46.652;21.272;2023-02-26T03:42:08;22.87;34.61
71514;DHT22;59335;46.652;21.272;2023-02-26T03:45:32;22.88;34.64
71514;DHT22;59335;46.652;21.272;2023-02-26T03:48:36;22.88;34.65
71514;DHT22;59335;46.652;21.272;2023-02-26T03:51:39;22.90;34.57
71514;DHT22;59335;46.652;21.272;2023-02-26T03:55:23;22.88;34.57
71514;DHT22;59335;46.652;21.272;2023-02-26T03:58:36;22.88;34.56
71514;DHT22;59335;46.652;21.272;2023-02-26T04:02:24;22.90;34.58
71514;DHT22;59335;46.652;21.272;2023-02-26T04:05:38;22.90;34.58
71514;DHT22;59335;46.652;21.272;2023-02-26T04:08:42;22.88;34.54
71514;DHT22;59335;46.652;21.272;2023-02-26T04:11:46;22.87;34.51
71514;DHT22;59335;46.652;21.272;2023-02-26T04:14:55;22.84;34.48
71514;DHT22;59335;46.652;21.272;2023-02-26T04:17:59;22.87;34.52
71514;DHT22;59335;46.652;21.272;2023-02-26T04:21:03;22.88;34.51
71514;DHT22;59335;46.652;21.272;2023-02-26T04:24:06;22.85;34.50
71514;DHT22;59335;46.652;21.272;2023-02-26T04:27:10;22.85;34.43
71514;DHT22;59335;46.652;21.272;2023-02-26T04:30:13;22.85;34.43
71514;DHT22;59335;46.652;21.272;2023-02-26T04:33:15;22.90;34.48
71514;DHT22;59335;46.652;21.272;2023-02-26T04:36:18;22.88;34.46
71514;DHT22;59335;46.652;21.272;2023-02-26T04:39:21;22.87;34.44
71514;DHT22;59335;46.652;21.272;2023-02-26T04:42:25;22.85;34.41
71514;DHT22;59335;46.652;21.272;2023-02-26T04:45:28;22.85;34.40
71514;DHT22;59335;46.652;21.272;2023-02-26T04:48:38;22.88;34.43
71514;DHT22;59335;46.652;21.272;2023-02-26T04:51:41;22.87;34.40
71514;DHT22;59335;46.652;21.272;2023-02-26T04:54:46;22.88;34.46
71514;DHT22;59335;46.652;21.272;2023-02-26T04:57:50;22.85;34.39
71514;DHT22;59335;46.652;21.272;2023-02-26T05:00:56;22.87;34.39
71514;DHT22;59335;46.652;21.272;2023-02-26T05:04:00;22.87;34.35
71514;DHT22;59335;46.652;21.272;2023-02-26T05:07:04;22.87;34.40
71514;DHT22;59335;46.652;21.272;2023-02-26T05:10:07;22.88;34.36
71514;DHT22;59335;46.652;21.272;2023-02-26T05:13:10;22.87;34.35
71514;DHT22;59335;46.652;21.272;2023-02-26T05:16:15;22.87;34.32
71514;DHT22;59335;46.652;21.272;2023-02-26T05:19:18;22.84;34.30
71514;DHT22;59335;46.652;21.272;2023-02-26T05:22:23;22.87;34.30
71514;DHT22;59335;46.652;21.272;2023-02-26T05:25:26;22.87;34.33
71514;DHT22;59335;46.652;21.272;2023-02-26T05:28:29;22.84;34.29
71514;DHT22;59335;46.652;21.272;2023-02-26T05:31:32;22.87;34.27
71514;DHT22;59335;46.652;21.272;2023-02-26T05:34:34;22.87;34.30
71514;DHT22;59335;46.652;21.272;2023-02-26T05:37:38;22.87;34.30
71514;DHT22;59335;46.652;21.272;2023-02-26T05:40:40;22.87;34.24
71514;DHT22;59335;46.652;21.272;2023-02-26T05:43:43;22.85;34.27
71514;DHT22;59335;46.652;21.272;2023-02-26T05:46:46;22.85;34.27
71514;DHT22;59335;46.652;21.272;2023-02-26T05:49:49;22.87;34.22
71514;DHT22;59335;46.652;21.272;2023-02-26T05:52:52;22.88;34.24
71514;DHT22;59335;46.652;21.272;2023-02-26T05:55:54;22.88;34.21
71514;DHT22;59335;46.652;21.272;2023-02-26T05:58:57;22.85;34.23
71514;DHT22;59335;46.652;21.272;2023-02-26T06:02:00;22.85;34.21
71514;DHT22;59335;46.652;21.272;2023-02-26T06:05:03;22.87;34.22
71514;DHT22;59335;46.652;21.272;2023-02-26T06:08:06;22.87;34.17
71514;DHT22;59335;46.652;21.272;2023-02-26T06:11:08;22.88;34.15
71514;DHT22;59335;46.652;21.272;2023-02-26T06:14:11;22.87;34.16
71514;DHT22;59335;46.652;21.272;2023-02-26T06:17:14;22.87;34.16
71514;DHT22;59335;46.652;21.272;2023-02-26T06:20:17;22.88;34.13
71514;DHT22;59335;46.652;21.272;2023-02-26T06:23:20;22.85;34.13
71514;DHT22;59335;46.652;21.272;2023-02-26T06:26:22;22.87;34.08
71514;DHT22;59335;46.652;21.272;2023-02-26T06:29:25;22.88;34.09
71514;DHT22;59335;46.652;21.272;2023-02-26T06:32:28;22.88;34.06
71514;DHT22;59335;46.652;21.272;2023-02-26T06:35:32;22.87;34.01
71514;DHT22;59335;46.652;21.272;2023-02-26T06:38:34;22.88;33.99
71514;DHT22;59335;46.652;21.272;2023-02-26T06:41:37;22.92;34.01
71514;DHT22;59335;46.652;21.272;2023-02-26T06:44:40;22.90;34.02
71514;DHT22;59335;46.652;21.272;2023-02-26T06:47:42;22.88;33.99
71514;DHT22;59335;46.652;21.272;2023-02-26T06:50:45;22.90;33.99
71514;DHT22;59335;46.652;21.272;2023-02-26T06:53:47;22.91;34.01
71514;DHT22;59335;46.652;21.272;2023-02-26T06:56:50;22.88;33.97
71514;DHT22;59335;46.652;21.272;2023-02-26T06:59:53;22.90;33.95
71514;DHT22;59335;46.652;21.272;2023-02-26T07:02:56;22.92;33.96
71514;DHT22;59335;46.652;21.272;2023-02-26T07:05:59;22.90;33.91
71514;DHT22;59335;46.652;21.272;2023-02-26T07:09:22;22.90;33.95
71514;DHT22;59335;46.652;21.272;2023-02-26T07:12:24;22.91;33.91
71514;DHT22;59335;46.652;21.272;2023-02-26T07:15:27;22.91;33.91
71514;DHT22;59335;46.652;21.272;2023-02-26T07:18:30;22.91;33.92
71514;DHT22;59335;46.652;21.272;2023-02-26T07:21:33;22.92;33.90
71514;DHT22;59335;46.652;21.272;2023-02-26T07:24:35;22.92;33.88
71514;DHT22;59335;46.652;21.272;2023-02-26T07:27:38;22.90;33.82
71514;DHT22;59335;46.652;21.272;2023-02-26T07:30:45;22.92;33.81
71514;DHT22;59335;46.652;21.272;2023-02-26T07:33:48;22.92;33.79
71514;DHT22;59335;46.652;21.272;2023-02-26T07:36:51;22.90;33.82
71514;DHT22;59335;46.652;21.272;2023-02-26T07:39:53;22.95;33.81
71514;DHT22;59335;46.652;21.272;2023-02-26T07:42:56;22.92;33.81
71514;DHT22;59335;46.652;21.272;2023-02-26T07:45:59;22.94;33.76
71514;DHT22;59335;46.652;21.272;2023-02-26T07:49:02;22.95;33.79
71514;DHT22;59335;46.652;21.272;2023-02-26T07:52:05;22.95;33.76
71514;DHT22;59335;46.652;21.272;2023-02-26T07:55:09;22.94;33.75
71514;DHT22;59335;46.652;21.272;2023-02-26T07:58:12;22.95;33.73
71514;DHT22;59335;46.652;21.272;2023-02-26T08:01:14;22.95;33.65
71514;DHT22;59335;46.652;21.272;2023-02-26T08:04:17;22.95;33.71
71514;DHT22;59335;46.652;21.272;2023-02-26T08:07:20;22.94;33.72
71514;DHT22;59335;46.652;21.272;2023-02-26T08:10:23;22.98;33.64
71514;DHT22;59335;46.652;21.272;2023-02-26T08:13:26;22.95;33.68
71514;DHT22;59335;46.652;21.272;2023-02-26T08:16:29;22.96;33.64
71514;DHT22;59335;46.652;21.272;2023-02-26T08:19:31;22.96;33.61
71514;DHT22;59335;46.652;21.272;2023-02-26T08:22:34;22.96;33.62
71514;DHT22;59335;46.652;21.272;2023-02-26T08:25:37;22.96;33.62
71514;DHT22;59335;46.652;21.272;2023-02-26T08:28:40;22.96;33.61
71514;DHT22;59335;46.652;21.272;2023-02-26T08:31:43;22.96;33.57
71514;DHT22;59335;46.652;21.272;2023-02-26T08:34:46;22.98;33.55
71514;DHT22;59335;46.652;21.272;2023-02-26T08:37:48;22.99;33.57
71514;DHT22;59335;46.652;21.272;2023-02-26T08:40:51;22.99;33.59
71514;DHT22;59335;46.652;21.272;2023-02-26T08:43:54;22.99;33.56
71514;DHT22;59335;46.652;21.272;2023-02-26T08:46:57;22.99;33.54
71514;DHT22;59335;46.652;21.272;2023-02-26T08:50:00;22.96;33.61
71514;DHT22;59335;46.652;21.272;2023-02-26T08:53:03;22.99;33.56
71514;DHT22;59335;46.652;21.272;2023-02-26T08:56:06;22.99;33.48
71514;DHT22;59335;46.652;21.272;2023-02-26T08:59:08;22.99;33.50
71514;DHT22;59335;46.652;21.272;2023-02-26T09:02:13;22.99;33.51
71514;DHT22;59335;46.652;21.272;2023-02-26T09:05:16;23.01;33.51
71514;DHT22;59335;46.652;21.272;2023-02-26T09:08:19;23.01;33.54
71514;DHT22;59335;46.652;21.272;2023-02-26T09:11:22;23.01;33.47
71514;DHT22;59335;46.652;21.272;2023-02-26T09:14:25;23.02;33.47
71514;DHT22;59335;46.652;21.272;2023-02-26T09:17:28;22.99;33.43
71514;DHT22;59335;46.652;21.272;2023-02-26T09:20:31;22.99;33.43
71514;DHT22;59335;46.652;21.272;2023-02-26T09:23:34;22.99;33.43
71514;DHT22;59335;46.652;21.272;2023-02-26T09:26:37;23.01;33.41
71514;DHT22;59335;46.652;21.272;2023-02-26T09:29:39;23.01;33.44
71514;DHT22;59335;46.652;21.272;2023-02-26T09:32:42;23.02;33.43
71514;DHT22;59335;46.652;21.272;2023-02-26T09:35:50;23.01;33.39
71514;DHT22;59335;46.652;21.272;2023-02-26T09:38:53;23.01;33.40
71514;DHT22;59335;46.652;21.272;2023-02-26T09:41:58;23.02;33.41
71514;DHT22;59335;46.652;21.272;2023-02-26T09:45:05;23.01;33.38
71514;DHT22;59335;46.652;21.272;2023-02-26T09:48:13;23.01;33.35
71514;DHT22;59335;46.652;21.272;2023-02-26T09:51:20;23.02;33.37
71514;DHT22;59335;46.652;21.272;2023-02-26T09:54:27;23.03;33.46
71514;DHT22;59335;46.652;21.272;2023-02-26T09:57:35;23.02;33.40
71514;DHT22;59335;46.652;21.272;2023-02-26T10:07:52;23.05;33.38
71514;DHT22;59335;46.652;21.272;2023-02-26T10:11:13;23.03;33.40
71514;DHT22;59335;46.652;21.272;2023-02-26T10:21:37;23.02;33.31
71514;DHT22;59335;46.652;21.272;2023-02-26T10:24:51;23.03;33.29
71514;DHT22;59335;46.652;21.272;2023-02-26T10:28:05;23.02;33.26
71514;DHT22;59335;46.652;21.272;2023-02-26T10:34:51;23.03;33.31
71514;DHT22;59335;46.652;21.272;2023-02-26T10:37:58;23.01;33.26
71514;DHT22;59335;46.652;21.272;2023-02-26T10:41:04;23.02;33.28
71514;DHT22;59335;46.652;21.272;2023-02-26T10:44:23;23.02;33.25
71514;DHT22;59335;46.652;21.272;2023-02-26T10:47:48;23.02;33.22
71514;DHT22;59335;46.652;21.272;2023-02-26T10:50:57;23.02;33.20
71514;DHT22;59335;46.652;21.272;2023-02-26T10:57:36;23.02;33.22
71514;DHT22;59335;46.652;21.272;2023-02-26T11:00:45;23.03;33.20
71514;DHT22;59335;46.652;21.272;2023-02-26T11:04:10;23.06;33.23
71514;DHT22;59335;46.652;21.272;2023-02-26T11:07:13;23.03;33.17
71514;DHT22;59335;46.652;21.272;2023-02-26T11:10:21;23.03;33.14
71514;DHT22;59335;46.652;21.272;2023-02-26T11:13:27;23.02;33.20
71514;DHT22;59335;46.652;21.272;2023-02-26T11:16:31;23.02;33.17
71514;DHT22;59335;46.652;21.272;2023-02-26T11:19:51;23.02;33.14
71514;DHT22;59335;46.652;21.272;2023-02-26T11:22:56;23.01;33.08
71514;DHT22;59335;46.652;21.272;2023-02-26T11:26:12;23.03;33.05
71514;DHT22;59335;46.652;21.272;2023-02-26T11:29:21;23.03;33.10
71514;DHT22;59335;46.652;21.272;2023-02-26T11:32:31;23.02;33.02
71514;DHT22;59335;46.652;21.272;2023-02-26T11:35:35;23.02;33.05
71514;DHT22;59335;46.652;21.272;2023-02-26T11:38:39;23.02;33.02
71514;DHT22;59335;46.652;21.272;2023-02-26T11:41:45;23.02;33.00
71514;DHT22;59335;46.652;21.272;2023-02-26T11:44:50;23.02;32.97
71514;DHT22;59335;46.652;21.272;2023-02-26T11:48:03;22.99;32.99
71514;DHT22;59335;46.652;21.272;2023-02-26T11:51:11;22.98;32.91
71514;DHT22;59335;46.652;21.272;2023-02-26T11:54:22;22.99;32.86
71514;DHT22;59335;46.652;21.272;2023-02-26T11:57:27;22.99;32.82
71514;DHT22;59335;46.652;21.272;2023-02-26T12:00:35;22.99;32.71
71514;DHT22;59335;46.652;21.272;2023-02-26T12:03:43;23.01;32.71
71514;DHT22;59335;46.652;21.272;2023-02-26T12:06:51;22.98;32.68
71514;DHT22;59335;46.652;21.272;2023-02-26T12:09:54;22.99;32.71
71514;DHT22;59335;46.652;21.272;2023-02-26T12:13:30;22.98;32.74
71514;DHT22;59335;46.652;21.272;2023-02-26T12:16:59;22.98;32.68
71514;DHT22;59335;46.652;21.272;2023-02-26T12:20:12;22.99;32.71
71514;DHT22;59335;46.652;21.272;2023-02-26T12:33:54;22.98;32.65
71514;DHT22;59335;46.652;21.272;2023-02-26T12:43:50;22.98;32.62
71514;DHT22;59335;46.652;21.272;2023-02-26T12:47:08;22.98;32.65
71514;DHT22;59335;46.652;21.272;2023-02-26T13:11:28;22.94;32.45
71514;DHT22;59335;46.652;21.272;2023-02-26T13:20:31;22.94;32.36
71514;DHT22;59335;46.652;21.272;2023-02-26T13:23:51;22.94;32.42
71514;DHT22;59335;46.652;21.272;2023-02-26T13:26:55;22.91;32.42
71514;DHT22;59335;46.652;21.272;2023-02-26T13:33:25;22.91;32.39
71514;DHT22;59335;46.652;21.272;2023-02-26T13:36:30;22.92;32.36
71514;DHT22;59335;46.652;21.272;2023-02-26T13:39:55;22.92;32.30
71514;DHT22;59335;46.652;21.272;2023-02-26T13:46:51;22.90;32.34
71514;DHT22;59335;46.652;21.272;2023-02-26T13:56:51;22.90;32.30
71514;DHT22;59335;46.652;21.272;2023-02-26T14:06:44;22.91;32.37
71514;DHT22;59335;46.652;21.272;2023-02-26T14:10:12;22.91;32.34
71514;DHT22;59335;46.652;21.272;2023-02-26T14:13:20;22.88;32.36
71514;DHT22;59335;46.652;21.272;2023-02-26T14:16:27;22.91;32.29
71514;DHT22;59335;46.652;21.272;2023-02-26T14:23:12;22.87;32.29
71514;DHT22;59335;46.652;21.272;2023-02-26T14:26:17;22.88;32.37
71514;DHT22;59335;46.652;21.272;2023-02-26T14:29:35;22.90;32.36
71514;DHT22;59335;46.652;21.272;2023-02-26T14:33:07;22.91;32.29
71514;DHT22;59335;46.652;21.272;2023-02-26T14:36:23;22.90;32.35
71514;DHT22;59335;46.652;21.272;2023-02-26T14:39:40;22.88;32.29
71514;DHT22;59335;46.652;21.272;2023-02-26T14:42:57;22.88;32.33
71514;DHT22;59335;46.652;21.272;2023-02-26T14:46:03;22.90;32.29
71514;DHT22;59335;46.652;21.272;2023-02-26T14:49:40;22.87;32.26
71514;DHT22;59335;46.652;21.272;2023-02-26T14:52:51;22.87;32.31
71514;DHT22;59335;46.652;21.272;2023-02-26T15:03:18;22.87;32.18
71514;DHT22;59335;46.652;21.272;2023-02-26T15:16:39;22.87;32.20
71514;DHT22;59335;46.652;21.272;2023-02-26T15:20:09;22.88;32.18
71514;DHT22;59335;46.652;21.272;2023-02-26T15:26:47;22.85;32.18
71514;DHT22;59335;46.652;21.272;2023-02-26T15:29:51;22.84;32.17
71514;DHT22;59335;46.652;21.272;2023-02-26T15:32:58;22.85;32.21
71514;DHT22;59335;46.652;21.272;2023-02-26T15:36:07;22.87;32.15
71514;DHT22;59335;46.652;21.272;2023-02-26T15:39:15;22.85;32.12
71514;DHT22;59335;46.652;21.272;2023-02-26T15:42:21;22.84;32.12
71514;DHT22;59335;46.652;21.272;2023-02-26T15:45:33;22.84;32.12
71514;DHT22;59335;46.652;21.272;2023-02-26T15:48:38;22.85;32.13
71514;DHT22;59335;46.652;21.272;2023-02-26T15:51:47;22.84;32.11
71514;DHT22;59335;46.652;21.272;2023-02-26T15:54:55;22.84;32.12
71514;DHT22;59335;46.652;21.272;2023-02-26T15:58:00;22.85;32.06
71514;DHT22;59335;46.652;21.272;2023-02-26T16:01:05;22.84;32.12
71514;DHT22;59335;46.652;21.272;2023-02-26T16:04:18;22.82;32.12
71514;DHT22;59335;46.652;21.272;2023-02-26T16:07:30;22.84;32.15
71514;DHT22;59335;46.652;21.272;2023-02-26T16:10:39;22.82;32.12
71514;DHT22;59335;46.652;21.272;2023-02-26T16:13:44;22.84;32.08
71514;DHT22;59335;46.652;21.272;2023-02-26T16:16:50;22.85;32.11
71514;DHT22;59335;46.652;21.272;2023-02-26T16:19:58;22.82;32.14
71514;DHT22;59335;46.652;21.272;2023-02-26T16:23:12;22.85;32.03
71514;DHT22;59335;46.652;21.272;2023-02-26T16:26:25;22.84;32.09
71514;DHT22;59335;46.652;21.272;2023-02-26T16:29:32;22.84;32.06
71514;DHT22;59335;46.652;21.272;2023-02-26T16:32:36;22.85;32.09
71514;DHT22;59335;46.652;21.272;2023-02-26T16:36:04;22.85;32.02
71514;DHT22;59335;46.652;21.272;2023-02-26T16:39:26;22.82;32.10
71514;DHT22;59335;46.652;21.272;2023-02-26T16:45:48;22.84;32.06
71514;DHT22;59335;46.652;21.272;2023-02-26T16:49:04;22.82;32.09
71514;DHT22;59335;46.652;21.272;2023-02-26T16:52:15;22.85;32.09
71514;DHT22;59335;46.652;21.272;2023-02-26T16:55:20;22.81;32.04
71514;DHT22;59335;46.652;21.272;2023-02-26T16:58:25;22.82;32.10
71514;DHT22;59335;46.652;21.272;2023-02-26T17:01:35;22.84;32.03
71514;DHT22;59335;46.652;21.272;2023-02-26T17:04:40;22.84;32.03
71514;DHT22;59335;46.652;21.272;2023-02-26T17:07:47;22.81;32.02
71514;DHT22;59335;46.652;21.272;2023-02-26T17:11:00;22.81;32.06
71514;DHT22;59335;46.652;21.272;2023-02-26T17:17:20;22.81;32.03
71514;DHT22;59335;46.652;21.272;2023-02-26T17:20:23;22.81;32.02
71514;DHT22;59335;46.652;21.272;2023-02-26T17:23:30;22.82;32.00
71514;DHT22;59335;46.652;21.272;2023-02-26T17:26:35;22.81;31.99
71514;DHT22;59335;46.652;21.272;2023-02-26T17:29:41;22.81;31.98
71514;DHT22;59335;46.652;21.272;2023-02-26T17:32:45;22.82;31.98
71514;DHT22;59335;46.652;21.272;2023-02-26T17:35:50;22.84;32.00
71514;DHT22;59335;46.652;21.272;2023-02-26T17:38:55;22.81;31.95
71514;DHT22;59335;46.652;21.272;2023-02-26T17:41:58;22.82;31.92
71514;DHT22;59335;46.652;21.272;2023-02-26T17:45:02;22.81;31.91
71514;DHT22;59335;46.652;21.272;2023-02-26T17:48:07;22.82;31.91
71514;DHT22;59335;46.652;21.272;2023-02-26T17:51:12;22.81;31.85
71514;DHT22;59335;46.652;21.272;2023-02-26T17:54:18;22.82;31.85
71514;DHT22;59335;46.652;21.272;2023-02-26T17:57:25;22.81;31.79
71514;DHT22;59335;46.652;21.272;2023-02-26T18:00:31;22.79;31.76
71514;DHT22;59335;46.652;21.272;2023-02-26T18:03:42;22.81;31.73
71514;DHT22;59335;46.652;21.272;2023-02-26T18:06:46;22.81;31.65
71514;DHT22;59335;46.652;21.272;2023-02-26T18:09:51;22.78;31.68
71514;DHT22;59335;46.652;21.272;2023-02-26T18:12:56;22.81;31.70
71514;DHT22;59335;46.652;21.272;2023-02-26T18:16:01;22.79;31.65
71514;DHT22;59335;46.652;21.272;2023-02-26T18:19:06;22.76;31.57
71514;DHT22;59335;46.652;21.272;2023-02-26T18:22:15;22.81;31.53
71514;DHT22;59335;46.652;21.272;2023-02-26T18:25:23;22.78;31.53
71514;DHT22;59335;46.652;21.272;2023-02-26T18:28:30;22.81;31.51
71514;DHT22;59335;46.652;21.272;2023-02-26T18:31:34;22.78;31.51
71514;DHT22;59335;46.652;21.272;2023-02-26T18:34:42;22.78;31.44
71514;DHT22;59335;46.652;21.272;2023-02-26T18:37:47;22.78;31.43
71514;DHT22;59335;46.652;21.272;2023-02-26T18:40:53;22.78;31.30
71514;DHT22;59335;46.652;21.272;2023-02-26T18:43:57;22.79;31.36
71514;DHT22;59335;46.652;21.272;2023-02-26T18:47:03;22.79;31.24
71514;DHT22;59335;46.652;21.272;2023-02-26T18:50:10;22.79;31.25
71514;DHT22;59335;46.652;21.272;2023-02-26T18:53:17;22.78;31.21
71514;DHT22;59335;46.652;21.272;2023-02-26T18:56:25;22.78;31.16
71514;DHT22;59335;46.652;21.272;2023-02-26T18:59:31;22.78;31.16
71514;DHT22;59335;46.652;21.272;2023-02-26T19:02:36;22.75;31.12
71514;DHT22;59335;46.652;21.272;2023-02-26T19:05:41;22.75;31.09
71514;DHT22;59335;46.652;21.272;2023-02-26T19:08:47;22.78;31.05
71514;DHT22;59335;46.652;21.272;2023-02-26T19:11:54;22.76;31.04
71514;DHT22;59335;46.652;21.272;2023-02-26T19:14:58;22.76;31.01
71514;DHT22;59335;46.652;21.272;2023-02-26T19:18:03;22.78;30.92
71514;DHT22;59335;46.652;21.272;2023-02-26T19:21:06;22.78;30.94
71514;DHT22;59335;46.652;21.272;2023-02-26T19:24:11;22.78;30.87
71514;DHT22;59335;46.652;21.272;2023-02-26T19:27:16;22.76;30.83
71514;DHT22;59335;46.652;21.272;2023-02-26T19:30:22;22.75;30.81
71514;DHT22;59335;46.652;21.272;2023-02-26T19:33:26;22.76;30.73
71514;DHT22;59335;46.652;21.272;2023-02-26T19:36:31;22.76;30.73
71514;DHT22;59335;46.652;21.272;2023-02-26T19:39:37;22.75;30.75
71514;DHT22;59335;46.652;21.272;2023-02-26T19:42:46;22.74;30.67
71514;DHT22;59335;46.652;21.272;2023-02-26T19:45:50;22.72;30.66
71514;DHT22;59335;46.652;21.272;2023-02-26T19:48:55;22.74;30.64
71514;DHT22;59335;46.652;21.272;2023-02-26T19:52:02;22.72;30.55
71514;DHT22;59335;46.652;21.272;2023-02-26T19:55:06;22.75;30.55
71514;DHT22;59335;46.652;21.272;2023-02-26T19:58:11;22.75;30.54
71514;DHT22;59335;46.652;21.272;2023-02-26T20:01:19;22.74;30.51
71514;DHT22;59335;46.652;21.272;2023-02-26T20:04:23;22.74;30.43
71514;DHT22;59335;46.652;21.272;2023-02-26T20:07:27;22.72;30.41
71514;DHT22;59335;46.652;21.272;2023-02-26T20:10:31;22.71;30.46
71514;DHT22;59335;46.652;21.272;2023-02-26T20:13:35;22.75;30.41
71514;DHT22;59335;46.652;21.272;2023-02-26T20:16:40;22.78;30.41
71514;DHT22;59335;46.652;21.272;2023-02-26T20:19:47;22.74;30.40
71514;DHT22;59335;46.652;21.272;2023-02-26T20:22:51;22.72;30.38
71514;DHT22;59335;46.652;21.272;2023-02-26T20:25:57;22.72;30.43
71514;DHT22;59335;46.652;21.272;2023-02-26T20:29:01;22.75;30.40
71514;DHT22;59335;46.652;21.272;2023-02-26T20:32:06;22.72;30.41
71514;DHT22;59335;46.652;21.272;2023-02-26T20:35:10;22.74;30.33
71514;DHT22;59335;46.652;21.272;2023-02-26T20:38:15;22.76;30.37
71514;DHT22;59335;46.652;21.272;2023-02-26T20:41:21;22.78;30.33
71514;DHT22;59335;46.652;21.272;2023-02-26T20:44:25;22.75;30.31
71514;DHT22;59335;46.652;21.272;2023-02-26T20:47:28;22.75;30.22
71514;DHT22;59335;46.652;21.272;2023-02-26T20:50:34;22.76;30.22
71514;DHT22;59335;46.652;21.272;2023-02-26T20:53:40;22.74;30.16
71514;DHT22;59335;46.652;21.272;2023-02-26T20:56:45;22.74;30.14
71514;DHT22;59335;46.652;21.272;2023-02-26T20:59:51;22.74;30.13
71514;DHT22;59335;46.652;21.272;2023-02-26T21:02:55;22.74;30.11
71514;DHT22;59335;46.652;21.272;2023-02-26T21:06:02;22.72;30.03
71514;DHT22;59335;46.652;21.272;2023-02-26T21:09:05;22.76;30.05
71514;DHT22;59335;46.652;21.272;2023-02-26T21:12:11;22.72;30.02
71514;DHT22;59335;46.652;21.272;2023-02-26T21:15:14;22.74;30.02
71514;DHT22;59335;46.652;21.272;2023-02-26T21:18:18;22.74;30.01
71514;DHT22;59335;46.652;21.272;2023-02-26T21:21:22;22.72;29.98
71514;DHT22;59335;46.652;21.272;2023-02-26T21:24:27;22.72;29.98
71514;DHT22;59335;46.652;21.272;2023-02-26T21:27:31;22.74;29.93
71514;DHT22;59335;46.652;21.272;2023-02-26T21:30:34;22.74;29.93
71514;DHT22;59335;46.652;21.272;2023-02-26T21:33:37;22.75;29.94
71514;DHT22;59335;46.652;21.272;2023-02-26T21:36:41;22.74;29.95
71514;DHT22;59335;46.652;21.272;2023-02-26T21:39:45;22.72;29.93
71514;DHT22;59335;46.652;21.272;2023-02-26T21:42:49;22.72;29.91
71514;DHT22;59335;46.652;21.272;2023-02-26T21:45:52;22.74;29.90
71514;DHT22;59335;46.652;21.272;2023-02-26T21:48:55;22.72;29.88
71514;DHT22;59335;46.652;21.272;2023-02-26T21:52:03;22.72;29.89
71514;DHT22;59335;46.652;21.272;2023-02-26T21:55:07;22.74;29.84
71514;DHT22;59335;46.652;21.272;2023-02-26T21:58:12;22.74;29.81
71514;DHT22;59335;46.652;21.272;2023-02-26T22:01:15;22.71;29.79